createdAt,value
2023-08-09T00:00:57.788Z,8.48
2023-08-09T00:03:24.305Z,6.20
2023-08-09T00:05:50.682Z,8.18
2023-08-09T00:08:17.082Z,6.95
2023-08-09T00:10:43.494Z,6.80
2023-08-09T00:13:09.906Z,6.18
2023-08-09T00:15:36.278Z,6.88
2023-08-09T00:18:02.866Z,6.43
2023-08-09T00:20:29.251Z,5.50
2023-08-09T00:22:55.660Z,5.38
2023-08-09T00:25:22.033Z,8.52
2023-08-09T00:27:48.397Z,4.75
2023-08-09T00:30:14.843Z,7.43
2023-08-09T00:32:42.136Z,10.43
2023-08-09T00:35:09.261Z,6.28
2023-08-09T00:37:35.989Z,7.35
2023-08-09T00:40:03.840Z,7.88
2023-08-09T00:42:30.185Z,7.65
2023-08-09T00:44:56.579Z,9.00
2023-08-09T00:47:22.967Z,6.78
2023-08-09T00:49:49.682Z,5.85
2023-08-09T00:52:16.868Z,6.13
2023-08-09T00:54:43.661Z,6.75
2023-08-09T00:57:10.334Z,7.95
2023-08-09T00:59:36.771Z,7.72
2023-08-09T01:02:03.218Z,6.18
2023-08-09T01:04:29.733Z,8.98
2023-08-09T01:07:21.306Z,5.25
2023-08-09T01:09:54.982Z,5.85
2023-08-09T01:12:29.389Z,5.25
2023-08-09T01:14:59.240Z,5.53
2023-08-09T01:17:28.808Z,9.88
2023-08-09T01:19:57.438Z,6.78
2023-08-09T01:22:35.699Z,8.65
2023-08-09T01:25:04.586Z,8.93
2023-08-09T01:27:32.042Z,8.43
2023-08-09T01:29:58.650Z,5.25
2023-08-09T01:32:26.237Z,6.00
2023-08-09T01:34:53.513Z,8.77
2023-08-09T01:37:35.385Z,7.88
2023-08-09T01:40:05.707Z,9.93
2023-08-09T01:42:32.256Z,11.20
2023-08-09T01:44:59.125Z,9.80
2023-08-09T01:47:25.610Z,6.78
2023-08-09T01:49:51.970Z,9.10
2023-08-09T01:52:18.546Z,7.72
2023-08-09T01:54:44.912Z,10.20
2023-08-09T01:57:11.361Z,7.95
2023-08-09T01:59:37.872Z,8.43
2023-08-09T02:02:04.665Z,8.50
2023-08-09T02:04:31.454Z,11.23
2023-08-09T02:06:57.816Z,7.47
2023-08-09T02:09:24.255Z,8.05
2023-08-09T02:11:50.620Z,5.88
2023-08-09T02:14:16.990Z,7.78
2023-08-09T02:16:43.408Z,8.88
2023-08-09T02:19:09.781Z,9.15
2023-08-09T02:21:39.332Z,9.90
2023-08-09T02:24:06.168Z,8.25
2023-08-09T02:26:32.970Z,8.90
2023-08-09T02:28:59.328Z,8.20
2023-08-09T02:31:25.683Z,9.07
2023-08-09T02:33:52.053Z,9.57
2023-08-09T02:36:18.412Z,12.32
2023-08-09T02:38:44.798Z,9.35
2023-08-09T02:41:11.169Z,10.15
2023-08-09T02:43:37.565Z,10.70
2023-08-09T02:46:04.100Z,12.38
2023-08-09T02:48:30.957Z,15.55
2023-08-09T02:50:57.334Z,12.57
2023-08-09T02:53:37.879Z,14.65
2023-08-09T02:56:04.874Z,14.02
2023-08-09T02:58:31.308Z,14.77
2023-08-09T03:00:57.686Z,13.63
2023-08-09T03:03:24.134Z,14.63
2023-08-09T03:05:50.592Z,15.00
2023-08-09T03:08:16.948Z,13.20
2023-08-09T03:10:43.374Z,15.48
2023-08-09T03:13:09.715Z,15.32
2023-08-09T03:15:36.113Z,15.75
2023-08-09T03:18:02.556Z,14.43
2023-08-09T03:20:29.009Z,15.38
2023-08-09T03:22:55.398Z,17.85
2023-08-09T03:25:21.856Z,13.90
2023-08-09T03:27:48.233Z,17.30
2023-08-09T03:30:14.610Z,14.40
2023-08-09T03:32:41.160Z,14.35
2023-08-09T03:35:08.107Z,14.43
2023-08-09T03:37:35.222Z,15.00
2023-08-09T03:40:01.649Z,14.75
2023-08-09T03:42:28.061Z,18.98
2023-08-09T03:44:54.451Z,17.30
2023-08-09T03:47:20.907Z,15.00
2023-08-09T03:49:47.362Z,17.50
2023-08-09T03:52:13.767Z,14.90
2023-08-09T03:54:40.145Z,13.52
2023-08-09T03:57:06.515Z,12.77
2023-08-09T03:59:32.905Z,14.55
2023-08-09T04:01:59.288Z,18.73
2023-08-09T04:04:25.666Z,14.65
2023-08-09T04:06:52.081Z,16.88
2023-08-09T04:09:18.421Z,17.73
2023-08-09T04:11:44.799Z,15.82
2023-08-09T04:14:11.162Z,13.10
2023-08-09T04:16:37.542Z,17.13
2023-08-09T04:19:03.966Z,20.02
2023-08-09T04:21:30.393Z,16.70
2023-08-09T04:23:56.732Z,12.57
2023-08-09T04:26:23.114Z,13.82
2023-08-09T04:28:49.487Z,19.73
2023-08-09T04:31:15.924Z,16.08
2023-08-09T04:33:42.301Z,16.15
2023-08-09T04:36:08.671Z,13.80
2023-08-09T04:38:35.034Z,17.00
2023-08-09T04:41:01.422Z,14.60
2023-08-09T04:43:27.810Z,15.13
2023-08-09T04:45:54.206Z,14.70
2023-08-09T04:48:20.612Z,15.68
2023-08-09T04:50:47.028Z,14.20
2023-08-09T04:53:13.383Z,13.30
2023-08-09T04:55:39.819Z,15.25
2023-08-09T04:58:06.215Z,13.60
2023-08-09T05:00:32.606Z,12.07
2023-08-09T05:02:58.988Z,13.02
2023-08-09T05:05:25.423Z,17.58
2023-08-09T05:07:51.792Z,14.75
2023-08-09T05:10:18.434Z,13.82
2023-08-09T05:12:44.830Z,15.23
2023-08-09T05:15:12.026Z,11.40
2023-08-09T05:17:38.411Z,13.00
2023-08-09T05:20:05.344Z,12.73
2023-08-09T05:22:31.924Z,14.52
2023-08-09T05:24:58.261Z,17.30
2023-08-09T05:27:24.634Z,14.48
2023-08-09T05:29:50.985Z,13.85
2023-08-09T05:32:17.432Z,13.82
2023-08-09T05:34:43.866Z,11.93
2023-08-09T05:37:10.229Z,17.13
2023-08-09T05:39:36.673Z,16.02
2023-08-09T05:42:03.101Z,14.00
2023-08-09T05:44:29.953Z,15.85
2023-08-09T05:46:56.500Z,13.63
2023-08-09T05:49:22.893Z,12.40
2023-08-09T05:51:49.337Z,13.20
2023-08-09T05:54:15.713Z,12.82
2023-08-09T05:56:42.123Z,14.20
2023-08-09T05:59:08.522Z,24.92
2023-08-09T06:01:34.879Z,13.52
2023-08-09T06:04:01.276Z,11.75
2023-08-09T06:06:27.705Z,11.15
2023-08-09T06:08:54.105Z,10.30
2023-08-09T06:11:20.478Z,11.43
2023-08-09T06:13:47.134Z,8.48
2023-08-09T06:16:13.662Z,7.85
2023-08-09T06:18:40.053Z,8.73
2023-08-09T06:21:06.522Z,9.75
2023-08-09T06:23:32.950Z,7.55
2023-08-09T06:25:59.458Z,9.35
2023-08-09T06:28:25.890Z,8.48
2023-08-09T06:30:52.353Z,10.10
2023-08-09T06:33:18.858Z,9.52
2023-08-09T06:35:45.205Z,7.13
2023-08-09T06:38:15.849Z,8.45
2023-08-09T06:40:42.875Z,6.90
2023-08-09T06:43:09.256Z,7.07
2023-08-09T06:45:35.688Z,7.97
2023-08-09T06:48:02.122Z,6.13
2023-08-09T06:50:28.645Z,6.40
2023-08-09T06:52:55.061Z,7.03
2023-08-09T06:55:21.467Z,7.65
2023-08-09T06:57:47.871Z,7.75
2023-08-09T07:00:14.694Z,5.88
2023-08-09T07:02:41.150Z,8.88
2023-08-09T07:05:10.690Z,8.57
2023-08-09T07:07:37.456Z,7.50
2023-08-09T07:10:04.038Z,5.07
2023-08-09T07:12:30.416Z,8.68
2023-08-09T07:14:56.756Z,4.78
2023-08-09T07:17:23.147Z,6.45
2023-08-09T07:19:49.525Z,6.15
2023-08-09T07:22:15.931Z,8.48
2023-08-09T07:24:42.291Z,5.50
2023-08-09T07:27:08.707Z,5.13
2023-08-09T07:29:35.075Z,3.95
2023-08-09T07:32:01.814Z,5.15
2023-08-09T07:34:28.548Z,6.80
2023-08-09T07:36:54.961Z,7.43
2023-08-09T07:39:21.462Z,5.10
2023-08-09T07:41:47.822Z,10.20
2023-08-09T07:44:14.193Z,8.80
2023-08-09T07:46:40.567Z,3.63
2023-08-09T07:49:07.014Z,6.05
2023-08-09T07:51:33.438Z,8.68
2023-08-09T07:53:59.813Z,11.25
2023-08-09T07:56:26.228Z,4.93
2023-08-09T07:58:52.592Z,7.75
2023-08-09T08:01:18.985Z,6.53
2023-08-09T08:03:45.428Z,7.40
2023-08-09T08:06:11.841Z,5.53
2023-08-09T08:08:38.246Z,8.25
2023-08-09T08:11:04.645Z,4.80
2023-08-09T08:13:31.111Z,4.60
2023-08-09T08:15:57.547Z,4.85
2023-08-09T08:18:24.057Z,5.20
2023-08-09T08:20:50.670Z,4.88
2023-08-09T08:23:17.024Z,4.10
2023-08-09T08:25:43.446Z,4.35
2023-08-09T08:28:09.822Z,7.85
2023-08-09T08:30:36.275Z,6.00
2023-08-09T08:33:02.696Z,3.13
2023-08-09T08:35:29.151Z,4.78
2023-08-09T08:37:55.526Z,5.30
2023-08-09T08:40:23.696Z,7.65
2023-08-09T08:42:51.337Z,6.55
2023-08-09T08:45:18.929Z,4.32
2023-08-09T08:47:46.767Z,3.60
2023-08-09T08:50:15.570Z,5.35
2023-08-09T08:52:44.508Z,3.60
2023-08-09T08:55:12.658Z,2.53
2023-08-09T08:57:40.818Z,3.97
2023-08-09T09:00:12.933Z,3.90
2023-08-09T09:02:44.589Z,2.85
2023-08-09T09:05:12.588Z,2.38
2023-08-09T09:07:39.931Z,6.63
2023-08-09T09:10:08.165Z,6.20
2023-08-09T09:12:34.630Z,3.97
2023-08-09T09:15:01.041Z,3.17
2023-08-09T09:17:27.644Z,3.20
2023-08-09T09:19:54.100Z,3.78
2023-08-09T09:22:28.690Z,4.25
2023-08-09T09:24:59.732Z,4.97
2023-08-09T09:27:30.375Z,3.00
2023-08-09T09:30:00.919Z,2.58
2023-08-09T09:32:27.370Z,5.18
2023-08-09T09:34:53.759Z,2.33
2023-08-09T09:37:24.452Z,3.38
2023-08-09T09:39:50.906Z,3.88
2023-08-09T09:42:17.303Z,3.25
2023-08-09T09:44:44.913Z,2.90
2023-08-09T09:47:11.332Z,1.67
2023-08-09T09:49:37.954Z,1.90
2023-08-09T09:52:05.504Z,4.88
2023-08-09T09:54:32.894Z,2.10
2023-08-09T09:56:59.251Z,3.65
2023-08-09T09:59:25.863Z,1.85
2023-08-09T10:01:53.389Z,1.83
2023-08-09T10:04:20.673Z,3.72
2023-08-09T10:06:49.186Z,1.35
2023-08-09T10:09:17.487Z,2.42
2023-08-09T10:11:44.954Z,1.85
2023-08-09T10:14:12.428Z,1.38
2023-08-09T10:16:39.632Z,1.98
2023-08-09T10:19:15.258Z,1.95
2023-08-09T10:21:41.868Z,2.30
2023-08-09T10:24:13.464Z,3.58
2023-08-09T10:26:42.155Z,1.77
2023-08-09T10:29:11.115Z,5.57
2023-08-09T10:32:09.740Z,1.55
2023-08-09T10:34:42.658Z,2.53
2023-08-09T10:37:24.609Z,2.83
2023-08-09T10:40:14.345Z,1.75
2023-08-09T10:42:40.850Z,1.33
2023-08-09T10:45:07.809Z,2.97
2023-08-09T10:47:34.208Z,2.20
2023-08-09T10:50:01.219Z,2.33
2023-08-09T10:52:42.380Z,0.80
2023-08-09T10:55:20.685Z,2.38
2023-08-09T10:57:48.841Z,3.88
2023-08-09T11:00:16.371Z,3.22
2023-08-09T11:02:50.250Z,1.45
2023-08-09T11:05:17.722Z,3.60
2023-08-09T11:07:53.034Z,3.30
2023-08-09T11:10:35.134Z,1.50
2023-08-09T11:13:09.222Z,2.88
2023-08-09T11:15:36.519Z,2.35
2023-08-09T11:18:03.405Z,3.60
2023-08-09T11:20:30.173Z,1.65
2023-08-09T11:22:58.829Z,3.42
2023-08-09T11:25:27.142Z,4.18
2023-08-09T11:27:54.992Z,2.72
2023-08-09T11:30:21.867Z,3.20
2023-08-09T11:33:05.352Z,5.03
2023-08-09T11:35:34.154Z,2.60
2023-08-09T11:38:00.786Z,2.05
2023-08-09T11:40:27.772Z,1.98
2023-08-09T11:42:58.123Z,2.30
2023-08-09T11:45:24.881Z,1.25
2023-08-09T11:47:53.835Z,2.20
2023-08-09T11:50:24.388Z,1.23
2023-08-09T11:52:55.535Z,2.92
2023-08-09T11:55:24.737Z,1.75
2023-08-09T11:57:51.503Z,1.83
2023-08-09T12:00:18.089Z,1.95
2023-08-09T12:02:45.195Z,1.77
2023-08-09T12:05:14.973Z,2.03
2023-08-09T12:07:42.367Z,2.30
2023-08-09T12:10:13.145Z,4.63
2023-08-09T12:12:40.548Z,1.50
2023-08-09T12:15:09.887Z,2.90
2023-08-09T12:17:36.502Z,2.17
2023-08-09T12:20:05.896Z,2.50
2023-08-09T12:22:32.423Z,3.55
2023-08-09T12:24:59.698Z,0.98
2023-08-09T12:27:26.805Z,2.90
2023-08-09T12:29:53.550Z,2.13
2023-08-09T12:32:20.738Z,2.25
2023-08-09T12:34:47.423Z,1.63
2023-08-09T12:37:14.991Z,2.47
2023-08-09T12:39:41.371Z,1.75
2023-08-09T12:42:07.712Z,2.70
2023-08-09T12:44:34.077Z,3.42
2023-08-09T12:47:00.729Z,1.98
2023-08-09T12:49:27.274Z,2.03
2023-08-09T12:51:53.645Z,1.80
2023-08-09T12:54:20.116Z,2.92
2023-08-09T12:56:46.563Z,1.95
2023-08-09T12:59:12.951Z,1.77
2023-08-09T13:01:39.394Z,2.53
2023-08-09T13:04:06.193Z,1.67
2023-08-09T13:06:32.710Z,1.92
2023-08-09T13:09:00.855Z,1.88
2023-08-09T13:11:27.405Z,2.63
2023-08-09T13:13:55.109Z,2.70
2023-08-09T13:16:21.564Z,3.05
2023-08-09T13:18:47.979Z,1.65
2023-08-09T13:21:17.181Z,1.83
2023-08-09T13:23:44.555Z,2.13
2023-08-09T13:26:11.128Z,5.72
2023-08-09T13:28:37.516Z,2.00
2023-08-09T13:31:03.981Z,1.67
2023-08-09T13:33:30.486Z,2.17
2023-08-09T13:35:56.904Z,2.17
2023-08-09T13:38:28.962Z,2.55
2023-08-09T13:40:57.243Z,2.00
2023-08-09T13:43:24.733Z,7.53
2023-08-09T13:45:51.167Z,2.45
2023-08-09T13:48:17.675Z,3.42
2023-08-09T13:50:47.034Z,1.30
2023-08-09T13:53:14.112Z,1.23
2023-08-09T13:55:42.371Z,3.15
2023-08-09T13:58:08.757Z,2.55
2023-08-09T14:00:35.525Z,2.60
2023-08-09T14:03:01.957Z,2.60
2023-08-09T14:05:28.405Z,3.65
2023-08-09T14:07:54.776Z,2.38
2023-08-09T14:10:21.143Z,2.10
2023-08-09T14:12:47.526Z,1.50
2023-08-09T14:15:13.907Z,3.30
2023-08-09T14:17:40.434Z,1.55
2023-08-09T14:20:07.453Z,2.88
2023-08-09T14:22:33.900Z,2.05
2023-08-09T14:25:00.248Z,2.13
2023-08-09T14:27:26.643Z,1.33
2023-08-09T14:29:53.917Z,1.50
2023-08-09T14:32:21.096Z,2.40
2023-08-09T14:34:47.589Z,2.30
2023-08-09T14:37:14.050Z,1.17
2023-08-09T14:39:40.623Z,1.65
2023-08-09T14:42:07.341Z,2.42
2023-08-09T14:44:33.688Z,2.85
2023-08-09T14:47:00.150Z,1.50
2023-08-09T14:49:26.574Z,3.50
2023-08-09T14:51:52.954Z,2.80
2023-08-09T14:54:32.733Z,1.80
2023-08-09T14:57:03.820Z,2.93
2023-08-09T14:59:30.424Z,4.32
2023-08-09T15:01:56.790Z,6.68
2023-08-09T15:04:23.154Z,1.17
2023-08-09T15:06:49.513Z,2.17
2023-08-09T15:09:15.881Z,3.47
2023-08-09T15:11:42.297Z,4.82
2023-08-09T15:14:08.764Z,2.67
2023-08-09T15:16:35.370Z,2.58
2023-08-09T15:19:01.792Z,3.88
2023-08-09T15:21:28.176Z,2.25
2023-08-09T15:23:54.571Z,3.95
2023-08-09T15:26:21.533Z,2.75
2023-08-09T15:28:47.985Z,1.70
2023-08-09T15:31:14.440Z,2.17
2023-08-09T15:33:40.848Z,4.15
2023-08-09T15:36:07.218Z,2.90
2023-08-09T15:38:33.601Z,3.60
2023-08-09T15:41:03.394Z,2.05
2023-08-09T15:43:29.776Z,3.33
2023-08-09T15:45:56.152Z,2.88
2023-08-09T15:48:22.606Z,2.42
2023-08-09T15:50:49.007Z,2.75
2023-08-09T15:53:15.367Z,4.40
2023-08-09T15:55:43.183Z,2.92
2023-08-09T15:58:11.003Z,3.50
2023-08-09T16:00:49.713Z,3.13
2023-08-09T16:03:21.526Z,3.88
2023-08-09T16:05:48.045Z,2.22
2023-08-09T16:08:14.408Z,3.63
2023-08-09T16:10:40.792Z,3.63
2023-08-09T16:13:07.177Z,6.40
2023-08-09T16:15:33.735Z,4.63
2023-08-09T16:18:00.287Z,3.25
2023-08-09T16:20:27.021Z,3.50
2023-08-09T16:22:53.418Z,2.58
2023-08-09T16:25:19.813Z,1.88
2023-08-09T16:27:46.603Z,3.47
2023-08-09T16:30:13.804Z,4.03
2023-08-09T16:32:41.041Z,2.50
2023-08-09T16:35:08.111Z,3.00
2023-08-09T16:37:34.481Z,2.85
2023-08-09T16:40:00.840Z,3.92
2023-08-09T16:42:27.234Z,4.20
2023-08-09T16:44:53.626Z,5.70
2023-08-09T16:47:20.035Z,2.90
2023-08-09T16:49:46.392Z,5.35
2023-08-09T16:52:12.743Z,2.30
2023-08-09T16:54:39.085Z,3.17
2023-08-09T16:57:06.076Z,3.33
2023-08-09T16:59:32.668Z,3.00
2023-08-09T17:01:59.067Z,3.25
2023-08-09T17:04:25.442Z,3.72
2023-08-09T17:06:52.537Z,6.93
2023-08-09T17:09:18.874Z,2.75
2023-08-09T17:11:45.221Z,5.50
2023-08-09T17:14:11.591Z,5.05
2023-08-09T17:16:38.007Z,3.90
2023-08-09T17:19:04.567Z,3.97
2023-08-09T17:21:30.964Z,3.53
2023-08-09T17:23:57.395Z,7.25
2023-08-09T17:26:23.753Z,4.82
2023-08-09T17:28:50.138Z,4.93
2023-08-09T17:31:16.531Z,4.22
2023-08-09T17:33:43.366Z,6.53
2023-08-09T17:36:11.936Z,4.93
2023-08-09T17:38:39.929Z,5.20
2023-08-09T17:41:06.321Z,8.60
2023-08-09T17:43:33.255Z,7.82
2023-08-09T17:45:59.754Z,2.83
2023-08-09T17:48:26.218Z,3.88
2023-08-09T17:50:52.616Z,4.95
2023-08-09T17:53:19.004Z,3.67
2023-08-09T17:55:45.418Z,4.05
2023-08-09T17:58:11.767Z,5.72
2023-08-09T18:00:38.118Z,4.93
2023-08-09T18:03:04.916Z,4.03
2023-08-09T18:05:31.305Z,3.67
2023-08-09T18:07:57.659Z,2.22
2023-08-09T18:10:24.155Z,3.83
2023-08-09T18:12:50.545Z,4.53
2023-08-09T18:15:18.064Z,6.40
2023-08-09T18:17:44.547Z,3.10
2023-08-09T18:20:11.594Z,2.78
2023-08-09T18:22:48.682Z,4.10
2023-08-09T18:25:15.094Z,5.78
2023-08-09T18:27:41.708Z,6.85
2023-08-09T18:30:08.361Z,3.47
2023-08-09T18:32:34.808Z,6.70
2023-08-09T18:35:16.136Z,4.68
2023-08-09T18:37:44.949Z,3.67
2023-08-09T18:40:11.594Z,3.60
2023-08-09T18:42:38.474Z,3.53
2023-08-09T18:45:05.741Z,5.50
2023-08-09T18:47:32.885Z,3.92
2023-08-09T18:49:59.697Z,4.97
2023-08-09T18:52:26.126Z,6.20
2023-08-09T18:54:52.536Z,5.20
2023-08-09T18:57:18.918Z,6.15
2023-08-09T18:59:45.275Z,8.32
2023-08-09T19:02:11.705Z,8.30
2023-08-09T19:04:38.796Z,3.08
2023-08-09T19:07:05.720Z,6.15
2023-08-09T19:09:32.318Z,5.05
2023-08-09T19:11:58.814Z,6.07
2023-08-09T19:14:25.163Z,4.70
2023-08-09T19:16:51.525Z,4.43
2023-08-09T19:19:17.921Z,8.35
2023-08-09T19:21:44.283Z,7.72
2023-08-09T19:24:10.722Z,8.52
2023-08-09T19:26:37.068Z,6.88
2023-08-09T19:29:03.500Z,10.50
2023-08-09T19:31:29.881Z,11.15
2023-08-09T19:33:56.302Z,6.78
2023-08-09T19:36:22.695Z,6.13
2023-08-09T19:38:49.073Z,7.85
2023-08-09T19:41:15.438Z,5.63
2023-08-09T19:43:41.800Z,6.38
2023-08-09T19:46:08.280Z,4.40
2023-08-09T19:48:34.724Z,6.72
2023-08-09T19:51:01.111Z,5.32
2023-08-09T19:53:27.585Z,4.30
2023-08-09T19:55:53.990Z,7.45
2023-08-09T19:58:20.400Z,6.40
2023-08-09T20:00:46.823Z,8.40
2023-08-09T20:03:13.449Z,7.10
2023-08-09T20:05:39.940Z,4.80
2023-08-09T20:08:07.046Z,5.50
2023-08-09T20:10:34.492Z,5.65
2023-08-09T20:13:00.853Z,6.88
2023-08-09T20:15:27.284Z,5.28
2023-08-09T20:17:53.658Z,6.63
2023-08-09T20:20:20.232Z,8.20
2023-08-09T20:22:46.596Z,7.28
2023-08-09T20:25:12.945Z,5.45
2023-08-09T20:27:39.293Z,6.45
2023-08-09T20:30:06.272Z,11.75
2023-08-09T20:32:33.324Z,6.60
2023-08-09T20:34:59.757Z,10.00
2023-08-09T20:37:26.106Z,6.35
2023-08-09T20:39:52.472Z,8.45
2023-08-09T20:42:18.807Z,4.72
2023-08-09T20:44:45.158Z,6.07
2023-08-09T20:47:11.500Z,7.85
2023-08-09T20:49:37.870Z,5.45
2023-08-09T20:52:04.523Z,9.43
2023-08-09T20:54:31.104Z,4.88
2023-08-09T20:56:57.472Z,6.80
2023-08-09T20:59:23.848Z,7.32
2023-08-09T21:01:50.224Z,7.38
2023-08-09T21:04:16.610Z,8.25
2023-08-09T21:06:42.961Z,6.97
2023-08-09T21:09:09.339Z,5.65
2023-08-09T21:11:35.691Z,9.60
2023-08-09T21:14:02.054Z,7.88
2023-08-09T21:16:28.457Z,7.78
2023-08-09T21:18:54.836Z,5.90
2023-08-09T21:21:21.287Z,6.40
2023-08-09T21:26:16.938Z,6.53
2023-08-09T21:28:47.355Z,4.85
2023-08-09T21:31:15.125Z,9.82
2023-08-09T21:33:41.498Z,8.50
2023-08-09T21:36:08.028Z,5.60
2023-08-09T21:38:34.462Z,6.32
2023-08-09T21:41:01.224Z,6.13
2023-08-09T21:43:28.402Z,7.22
2023-08-09T21:45:55.069Z,6.10
2023-08-09T21:48:22.163Z,4.88
2023-08-09T21:50:51.631Z,5.13
2023-08-09T21:53:21.427Z,5.90
2023-08-09T21:55:48.401Z,5.13
2023-08-09T21:58:15.592Z,7.47
2023-08-09T22:00:42.796Z,4.68
2023-08-09T22:03:09.646Z,4.95
2023-08-09T22:05:36.386Z,5.68
2023-08-09T22:08:02.856Z,4.72
2023-08-09T22:10:29.724Z,7.35
2023-08-09T22:12:56.089Z,5.38
2023-08-09T22:15:22.681Z,6.30
2023-08-09T22:17:49.057Z,7.32
2023-08-09T22:20:15.475Z,7.93
2023-08-09T22:22:41.868Z,6.80
2023-08-09T22:25:08.538Z,6.13
2023-08-09T22:27:35.163Z,6.05
2023-08-09T22:30:01.558Z,6.47
2023-08-09T22:32:27.963Z,6.57
2023-08-09T22:34:54.379Z,6.88
2023-08-09T22:37:20.738Z,6.55
2023-08-09T22:39:47.082Z,8.32
2023-08-09T22:42:13.919Z,7.20
2023-08-09T22:44:40.305Z,10.38
2023-08-09T22:47:06.963Z,5.47
2023-08-09T22:49:33.362Z,7.82
2023-08-09T22:52:00.401Z,8.48
2023-08-09T22:54:26.785Z,9.43
2023-08-09T22:56:53.149Z,5.72
2023-08-09T22:59:19.506Z,9.48
2023-08-09T23:01:45.868Z,8.68
2023-08-09T23:04:12.292Z,9.30
2023-08-09T23:06:40.768Z,6.20
2023-08-09T23:09:07.443Z,9.02
2023-08-09T23:11:33.821Z,7.72
2023-08-09T23:14:00.207Z,6.97
2023-08-09T23:16:26.618Z,7.20
2023-08-09T23:18:53.066Z,4.95
2023-08-09T23:21:19.427Z,7.07
2023-08-09T23:23:45.826Z,7.50
2023-08-09T23:26:12.267Z,5.95
2023-08-09T23:28:38.615Z,7.47
2023-08-09T23:31:04.990Z,7.72
2023-08-09T23:33:31.505Z,9.70
2023-08-09T23:35:57.956Z,7.47
2023-08-09T23:38:24.498Z,7.03
2023-08-09T23:40:51.003Z,6.13
2023-08-09T23:43:17.490Z,6.28
2023-08-09T23:45:44.022Z,8.02
2023-08-09T23:48:10.434Z,7.47
2023-08-09T23:50:36.906Z,8.30
2023-08-09T23:53:03.413Z,7.90
2023-08-09T23:55:29.766Z,7.15
2023-08-09T23:57:56.146Z,6.47
